Time;durP1;ratioP1;P1;durP2;ratioP2;P2;SDS_P1;SDS_P2;PMS_P1;PMS_P2;Temp;Humidity;BMP_temperature;BMP_pressure;BME280_temperature;BME280_humidity;BME280_pressure;Samples;Min_cycle;Max_cycle;Signal;HPM_P1;HPM_P2
2023/02/21 02:14:33;;;;;;;6.28;3.50;;;;;;;;;;10557631;28;20677;-88
2023/02/21 02:20:05;;;;;;;6.43;3.42;;;;;;;;;;10556326;28;20081;-86
2023/02/21 02:25:27;;;;;;;4.43;3.25;;;;;;;;;;10528398;27;20039;-88
2023/02/21 02:31:05;;;;;;;8.10;3.58;;;;;;;;;;10552951;28;20036;-81
2023/02/21 02:36:13;;;;;;;5.43;3.22;;;;;;;;;;10536360;28;20063;-83
2023/02/21 02:41:24;;;;;;;5.78;3.42;;;;;;;;;;10547704;28;20038;-83
2023/02/21 02:46:30;;;;;;;6.28;3.40;;;;;;;;;;10549558;28;20742;-83
2023/02/21 02:51:36;;;;;;;5.45;3.60;;;;;;;;;;10547974;28;20613;-82
2023/02/21 02:56:41;;;;;;;5.30;3.42;;;;;;;;;;10549195;28;20126;-83
2023/02/21 03:02:13;;;;;;;6.72;3.38;;;;;;;;;;10547980;28;20044;-83
2023/02/21 03:07:25;;;;;;;7.97;4.20;;;;;;;;;;10511999;28;20139;-83
2023/02/21 03:12:37;;;;;;;5.15;3.65;;;;;;;;;;10545067;27;20466;-83
2023/02/21 03:17:46;;;;;;;5.55;3.63;;;;;;;;;;10546908;27;20040;-85
2023/02/21 03:22:53;;;;;;;7.18;3.95;;;;;;;;;;10542799;28;20382;-83
2023/02/21 03:27:57;;;;;;;5.93;3.45;;;;;;;;;;10545821;28;20043;-83
2023/02/21 03:38:15;;;;;;;6.93;3.72;;;;;;;;;;10538452;28;20506;-83
2023/02/21 03:43:18;;;;;;;6.55;3.75;;;;;;;;;;10549651;28;20040;-86
2023/02/21 03:48:32;;;;;;;5.50;3.33;;;;;;;;;;10549847;28;20066;-86
2023/02/21 03:53:50;;;;;;;7.30;4.10;;;;;;;;;;10550504;28;20074;-89
2023/02/21 03:58:58;;;;;;;8.13;4.13;;;;;;;;;;10564471;27;20051;-84
2023/02/21 04:04:01;;;;;;;7.57;4.38;;;;;;;;;;10543776;28;20398;-84
2023/02/21 04:09:07;;;;;;;5.65;3.17;;;;;;;;;;10545812;28;20051;-85
2023/02/21 04:14:11;;;;;;;7.45;3.92;;;;;;;;;;10544310;28;20066;-87
2023/02/21 04:19:15;;;;;;;6.05;3.80;;;;;;;;;;10549296;28;20093;-87
2023/02/21 04:24:22;;;;;;;7.28;4.47;;;;;;;;;;10549413;28;20086;-86
2023/02/21 04:29:27;;;;;;;8.30;4.47;;;;;;;;;;10547498;28;20042;-85
2023/02/21 04:34:30;;;;;;;9.50;4.95;;;;;;;;;;10548025;28;20043;-85
2023/02/21 04:39:36;;;;;;;6.50;4.13;;;;;;;;;;10538757;28;20044;-83
2023/02/21 04:44:39;;;;;;;6.45;3.70;;;;;;;;;;10541412;28;20051;-85
2023/02/21 04:49:50;;;;;;;7.00;4.07;;;;;;;;;;10549234;28;20052;-85
2023/02/21 04:54:55;;;;;;;6.82;3.83;;;;;;;;;;10542590;28;20039;-85
2023/02/21 04:59:59;;;;;;;7.65;4.05;;;;;;;;;;10547452;28;20059;-85
2023/02/21 05:05:03;;;;;;;6.75;3.75;;;;;;;;;;10536364;28;20074;-85
2023/02/21 05:10:09;;;;;;;8.40;4.32;;;;;;;;;;10545056;28;20264;-89
2023/02/21 05:15:14;;;;;;;7.47;3.72;;;;;;;;;;10552477;28;20043;-87
2023/02/21 05:20:17;;;;;;;7.18;4.40;;;;;;;;;;10554604;28;20126;-88
2023/02/21 05:25:24;;;;;;;6.97;4.70;;;;;;;;;;10543497;28;20050;-90
2023/02/21 05:30:27;;;;;;;;;;;;;;;;;;10547070;28;20483;-87
2023/02/21 05:35:31;;;;;;;6.43;3.63;;;;;;;;;;10558041;28;19928;-90
2023/02/21 05:40:36;;;;;;;7.57;3.83;;;;;;;;;;10564366;28;20044;-87
2023/02/21 05:45:39;;;;;;;5.97;3.33;;;;;;;;;;10570662;28;20141;-89
2023/02/21 05:50:44;;;;;;;5.70;2.95;;;;;;;;;;10571010;28;20498;-90
2023/02/21 05:55:49;;;;;;;5.75;3.38;;;;;;;;;;10561056;28;20039;-84
2023/02/21 06:00:53;;;;;;;7.03;4.25;;;;;;;;;;10554048;27;20457;-84
2023/02/21 06:05:57;;;;;;;6.03;3.92;;;;;;;;;;10555017;28;20421;-84
2023/02/21 06:11:05;;;;;;;7.32;4.03;;;;;;;;;;10563441;28;20398;-91
2023/02/21 06:16:14;;;;;;;9.30;4.00;;;;;;;;;;10567298;28;20056;-88
2023/02/21 06:21:17;;;;;;;6.15;3.95;;;;;;;;;;10573035;28;20043;-89
2023/02/21 06:26:23;;;;;;;7.97;4.28;;;;;;;;;;10572363;28;20492;-91
2023/02/21 06:31:27;;;;;;;5.27;3.73;;;;;;;;;;10571220;28;20084;-87
2023/02/21 06:36:31;;;;;;;5.65;3.30;;;;;;;;;;10570398;28;20101;-87
2023/02/21 06:41:36;;;;;;;7.03;4.20;;;;;;;;;;10570991;27;20035;-87
2023/02/21 06:46:39;;;;;;;7.47;3.97;;;;;;;;;;10563363;28;20046;-85
2023/02/21 06:51:43;;;;;;;7.75;4.28;;;;;;;;;;10559292;28;20063;-85
2023/02/21 06:56:48;;;;;;;8.82;4.43;;;;;;;;;;10562611;28;20534;-85
2023/02/21 07:01:52;;;;;;;5.20;3.17;;;;;;;;;;10557393;27;20070;-87
2023/02/21 07:06:55;;;;;;;7.07;4.78;;;;;;;;;;10557621;28;20048;-85
2023/02/21 07:12:00;;;;;;;7.63;4.47;;;;;;;;;;10556020;28;20048;-85
2023/02/21 07:17:03;;;;;;;8.80;4.40;;;;;;;;;;10555823;28;20059;-86
2023/02/21 07:22:07;;;;;;;6.82;3.95;;;;;;;;;;10547621;28;20419;-85
2023/02/21 07:27:12;;;;;;;6.85;4.00;;;;;;;;;;10535476;28;20071;-87
2023/02/21 07:32:17;;;;;;;10.20;6.00;;;;;;;;;;10550994;28;20036;-88
2023/02/21 07:37:21;;;;;;;8.20;4.73;;;;;;;;;;10554542;28;20411;-90
2023/02/21 07:42:27;;;;;;;8.18;5.00;;;;;;;;;;10556330;28;20069;-86
2023/02/21 07:47:31;;;;;;;8.60;5.70;;;;;;;;;;10559653;28;20046;-88
2023/02/21 07:52:43;;;;;;;10.05;5.55;;;;;;;;;;10569453;28;20051;-87
2023/02/21 07:57:51;;;;;;;11.23;6.28;;;;;;;;;;10571951;28;20035;-89
2023/02/21 08:02:55;;;;;;;10.15;6.80;;;;;;;;;;10574228;28;20040;-88
2023/02/21 08:08:00;;;;;;;9.55;5.78;;;;;;;;;;10565377;28;20794;-87
2023/02/21 08:13:33;;;;;;;10.13;5.70;;;;;;;;;;10546572;28;20104;-87
2023/02/21 08:18:36;;;;;;;7.93;5.30;;;;;;;;;;10573839;27;20043;-89
2023/02/21 08:23:40;;;;;;;8.48;5.10;;;;;;;;;;10596328;27;20533;-90
2023/02/21 08:28:46;;;;;;;8.10;4.90;;;;;;;;;;10555440;27;20518;-86
2023/02/21 08:33:50;;;;;;;10.00;5.57;;;;;;;;;;10575175;27;20035;-88
2023/02/21 08:38:54;;;;;;;7.50;5.10;;;;;;;;;;10593929;28;20120;-89
2023/02/21 08:44:00;;;;;;;6.85;4.18;;;;;;;;;;10559057;28;20048;-89
2023/02/21 08:49:04;;;;;;;6.97;4.25;;;;;;;;;;10589902;28;20059;-89
2023/02/21 08:54:08;;;;;;;5.90;3.70;;;;;;;;;;10598390;28;20077;-89
2023/02/21 08:59:19;;;;;;;6.47;3.63;;;;;;;;;;10586609;28;20126;-87
2023/02/21 09:04:23;;;;;;;5.05;3.42;;;;;;;;;;10585069;28;20043;-89
2023/02/21 09:09:27;;;;;;;4.35;3.33;;;;;;;;;;10592036;28;20118;-89
2023/02/21 09:14:35;;;;;;;4.65;3.35;;;;;;;;;;10585430;27;20035;-87
2023/02/21 09:19:43;;;;;;;6.20;3.75;;;;;;;;;;10583342;27;20051;-88
2023/02/21 09:24:50;;;;;;;5.95;3.88;;;;;;;;;;10596627;27;20085;-89
2023/02/21 09:29:55;;;;;;;7.07;4.65;;;;;;;;;;10605699;27;20039;-89
2023/02/21 09:35:00;;;;;;;6.85;4.00;;;;;;;;;;10596913;27;20090;-92
2023/02/21 09:40:21;;;;;;;9.30;4.07;;;;;;;;;;10603308;27;20466;-92
2023/02/21 09:45:39;;;;;;;7.82;4.30;;;;;;;;;;10598972;27;20407;-91
2023/02/21 09:50:49;;;;;;;5.80;3.73;;;;;;;;;;10600963;27;20062;-90
2023/02/21 09:55:57;;;;;;;7.10;4.43;;;;;;;;;;10593817;27;20043;-90
2023/02/21 10:01:09;;;;;;;6.53;4.07;;;;;;;;;;10592507;27;20092;-92
2023/02/21 10:06:24;;;;;;;7.68;6.00;;;;;;;;;;10577800;27;20039;-88
2023/02/21 10:11:47;;;;;;;5.72;3.72;;;;;;;;;;10579526;27;20066;-88
2023/02/21 10:17:03;;;;;;;5.15;3.50;;;;;;;;;;10597943;27;20070;-87
2023/02/21 10:22:15;;;;;;;5.88;3.72;;;;;;;;;;10578738;27;20047;-88
2023/02/21 10:27:21;;;;;;;6.75;3.72;;;;;;;;;;10579972;27;20174;-87
2023/02/21 10:32:28;;;;;;;6.00;3.42;;;;;;;;;;10578361;27;20043;-88
2023/02/21 10:37:39;;;;;;;4.45;3.28;;;;;;;;;;10579796;27;20054;-88
2023/02/21 10:42:48;;;;;;;4.95;3.53;;;;;;;;;;10577409;27;20280;-87
2023/02/21 10:48:00;;;;;;;5.80;2.95;;;;;;;;;;10575421;27;20039;-87
2023/02/21 10:53:04;;;;;;;4.80;2.88;;;;;;;;;;10576181;27;20107;-87
2023/02/21 10:58:11;;;;;;;3.85;2.80;;;;;;;;;;10576522;27;20042;-88
2023/02/21 11:03:25;;;;;;;3.55;2.60;;;;;;;;;;10577496;27;20126;-87
2023/02/21 11:08:37;;;;;;;5.15;3.55;;;;;;;;;;10576112;27;20042;-87
2023/02/21 11:13:41;;;;;;;4.88;3.33;;;;;;;;;;10576035;27;20039;-86
2023/02/21 11:19:03;;;;;;;;;;;;;;;;;;10572002;27;20062;-86
2023/02/21 11:24:11;;;;;;;5.53;3.28;;;;;;;;;;10574802;27;19934;-87
2023/02/21 11:29:20;;;;;;;4.22;2.97;;;;;;;;;;10570639;27;20035;-87
2023/02/21 11:34:29;;;;;;;3.72;2.35;;;;;;;;;;10564875;27;20035;-87
2023/02/21 11:39:34;;;;;;;4.65;3.20;;;;;;;;;;10572158;27;20063;-87
2023/02/21 11:44:39;;;;;;;3.58;2.55;;;;;;;;;;10567262;27;20661;-87
2023/02/21 11:49:51;;;;;;;2.85;2.40;;;;;;;;;;10573768;27;20063;-92
2023/02/21 11:54:55;;;;;;;4.22;2.92;;;;;;;;;;10584300;27;20511;-89
2023/02/21 12:00:11;;;;;;;3.53;2.50;;;;;;;;;;10595222;27;20704;-88
2023/02/21 12:05:35;;;;;;;3.03;1.83;;;;;;;;;;10616951;27;20039;-88
2023/02/21 12:10:48;;;;;;;2.88;1.90;;;;;;;;;;10598760;27;20043;-88
2023/02/21 12:15:58;;;;;;;5.32;3.03;;;;;;;;;;10589667;27;20441;-88
2023/02/21 12:21:25;;;;;;;6.18;3.50;;;;;;;;;;10595518;27;20032;-87
2023/02/21 12:26:48;;;;;;;4.20;2.42;;;;;;;;;;10593931;27;20035;-87
2023/02/21 12:32:20;;;;;;;2.80;1.77;;;;;;;;;;10588127;27;20114;-88
2023/02/21 12:37:33;;;;;;;1.60;1.40;;;;;;;;;;10589246;28;20122;-87
2023/02/21 12:43:00;;;;;;;5.30;2.38;;;;;;;;;;10590015;28;20042;-90
2023/02/21 12:48:11;;;;;;;1.63;1.27;;;;;;;;;;10597748;27;20039;-85
2023/02/21 12:53:18;;;;;;;1.40;1.10;;;;;;;;;;10596220;27;20050;-86
2023/02/21 12:58:28;;;;;;;2.58;1.70;;;;;;;;;;10618335;27;20053;-85
2023/02/21 13:03:45;;;;;;;2.47;1.63;;;;;;;;;;10595349;27;20100;-86
2023/02/21 13:08:58;;;;;;;0.95;0.80;;;;;;;;;;10615111;27;20059;-85
2023/02/21 13:14:02;;;;;;;2.38;0.82;;;;;;;;;;10598953;27;20039;-85
2023/02/21 13:19:09;;;;;;;1.17;0.70;;;;;;;;;;10597880;27;20035;-85
2023/02/21 13:24:36;;;;;;;1.30;0.70;;;;;;;;;;10617043;27;20509;-85
2023/02/21 13:29:43;;;;;;;1.58;0.95;;;;;;;;;;10594518;27;20126;-85
2023/02/21 13:34:53;;;;;;;2.13;1.00;;;;;;;;;;10598529;27;20043;-86
2023/02/21 13:40:06;;;;;;;2.25;1.10;;;;;;;;;;10615360;27;20567;-86
2023/02/21 13:45:17;;;;;;;2.28;1.00;;;;;;;;;;10614500;27;20088;-85
2023/02/21 13:50:44;;;;;;;0.98;0.88;;;;;;;;;;10591870;27;20643;-85
2023/02/21 13:56:19;;;;;;;0.70;0.68;;;;;;;;;;10594196;27;20047;-86
2023/02/21 14:01:40;;;;;;;1.00;0.80;;;;;;;;;;10593963;27;20170;-85
2023/02/21 14:06:55;;;;;;;1.30;0.68;;;;;;;;;;10597328;27;20051;-86
2023/02/21 14:12:03;;;;;;;0.95;0.60;;;;;;;;;;10609431;27;20685;-85
2023/02/21 14:17:09;;;;;;;2.20;1.30;;;;;;;;;;10595675;27;20053;-85
2023/02/21 14:22:15;;;;;;;2.83;1.42;;;;;;;;;;10586532;27;20043;-85
2023/02/21 14:27:35;;;;;;;1.67;1.45;;;;;;;;;;10594545;27;20131;-85
2023/02/21 14:32:43;;;;;;;4.25;1.33;;;;;;;;;;10608584;27;20042;-85
2023/02/21 14:37:54;;;;;;;1.50;1.05;;;;;;;;;;10596206;27;20719;-86
2023/02/21 14:43:18;;;;;;;0.70;0.70;;;;;;;;;;10612978;27;20051;-85
2023/02/21 14:48:46;;;;;;;2.08;1.17;;;;;;;;;;10610178;27;20126;-86
2023/02/21 14:54:20;;;;;;;2.08;1.30;;;;;;;;;;10590635;27;20039;-83
2023/02/21 14:59:58;;;;;;;1.75;1.00;;;;;;;;;;10568868;27;20535;-85
2023/02/21 15:05:12;;;;;;;2.90;0.98;;;;;;;;;;10610894;27;20047;-86
2023/02/21 15:10:18;;;;;;;1.15;1.00;;;;;;;;;;10592791;27;20135;-85
2023/02/21 15:15:26;;;;;;;1.20;1.10;;;;;;;;;;10610341;27;20043;-85
2023/02/21 15:20:30;;;;;;;3.08;1.38;;;;;;;;;;10587034;27;20035;-85
2023/02/21 15:25:33;;;;;;;3.97;2.17;;;;;;;;;;10592935;27;20061;-85
2023/02/21 15:30:40;;;;;;;2.28;1.25;;;;;;;;;;10592242;27;20700;-86
2023/02/21 15:35:49;;;;;;;2.22;1.20;;;;;;;;;;10591676;27;20247;-85
2023/02/21 15:40:56;;;;;;;1.67;0.82;;;;;;;;;;10607429;27;20043;-85
2023/02/21 15:46:02;;;;;;;1.95;0.80;;;;;;;;;;10590819;27;20045;-82
2023/02/21 15:51:08;;;;;;;2.67;1.05;;;;;;;;;;10591044;27;20046;-85
2023/02/21 15:56:22;;;;;;;2.10;0.90;;;;;;;;;;10591533;27;20134;-85
2023/02/21 16:01:27;;;;;;;2.15;1.10;;;;;;;;;;10587256;27;20043;-85
2023/02/21 16:06:31;;;;;;;1.83;1.00;;;;;;;;;;10601159;27;20059;-83
2023/02/21 16:11:44;;;;;;;2.70;1.10;;;;;;;;;;10572826;27;20051;-83
2023/02/21 16:16:52;;;;;;;1.42;0.88;;;;;;;;;;10570678;27;20046;-86
2023/02/21 16:22:14;;;;;;;2.65;1.45;;;;;;;;;;10601472;27;20046;-85
2023/02/21 16:27:18;;;;;;;1.73;1.13;;;;;;;;;;10600863;27;20336;-85
2023/02/21 16:32:23;;;;;;;2.65;1.48;;;;;;;;;;10576339;27;20039;-87
2023/02/21 16:37:26;;;;;;;1.95;1.00;;;;;;;;;;10580042;27;20063;-88
2023/02/21 16:42:30;;;;;;;1.90;1.20;;;;;;;;;;10564233;27;20035;-85
2023/02/21 16:47:35;;;;;;;1.83;0.90;;;;;;;;;;10588071;27;20142;-87
2023/02/21 16:52:38;;;;;;;1.85;1.05;;;;;;;;;;10573728;27;20126;-85
2023/02/21 16:57:42;;;;;;;2.70;1.23;;;;;;;;;;10575830;28;20039;-87
2023/02/21 17:02:46;;;;;;;1.48;1.20;;;;;;;;;;10597204;27;20107;-84
2023/02/21 17:07:51;;;;;;;3.88;2.10;;;;;;;;;;10586327;28;20472;-84
2023/02/21 17:12:55;;;;;;;8.90;3.97;;;;;;;;;;10605546;27;20054;-84
2023/02/21 17:18:00;;;;;;;11.63;5.40;;;;;;;;;;10590780;28;20043;-84
2023/02/21 17:23:04;;;;;;;12.07;5.88;;;;;;;;;;10595864;28;20059;-84
2023/02/21 17:28:10;;;;;;;16.58;7.75;;;;;;;;;;10588223;28;20051;-83
2023/02/21 17:33:15;;;;;;;10.75;6.07;;;;;;;;;;10587166;27;20043;-89
2023/02/21 17:38:19;;;;;;;8.27;4.93;;;;;;;;;;10600479;27;20043;-86
2023/02/21 17:43:22;;;;;;;7.57;4.63;;;;;;;;;;10602142;27;20049;-87
2023/02/21 17:48:26;;;;;;;9.75;6.07;;;;;;;;;;10620203;27;20524;-89
2023/02/21 17:53:30;;;;;;;12.35;6.97;;;;;;;;;;10612054;27;20426;-89
2023/02/21 17:58:34;;;;;;;9.40;5.63;;;;;;;;;;10615497;27;20066;-86
2023/02/21 18:03:39;;;;;;;12.68;7.57;;;;;;;;;;10582607;27;20122;-86
2023/02/21 18:08:43;;;;;;;12.80;7.32;;;;;;;;;;10596580;27;20053;-86
2023/02/21 18:13:47;;;;;;;9.30;5.93;;;;;;;;;;10589997;27;20082;-89
2023/02/21 18:18:52;;;;;;;8.82;5.43;;;;;;;;;;10572219;27;20515;-86
2023/02/21 18:23:56;;;;;;;13.75;6.13;;;;;;;;;;10611251;27;20046;-86
2023/02/21 18:28:59;;;;;;;10.18;5.32;;;;;;;;;;10610558;27;20042;-87
2023/02/21 18:34:07;;;;;;;10.45;5.68;;;;;;;;;;10595831;27;20049;-84
2023/02/21 18:39:10;;;;;;;7.90;4.97;;;;;;;;;;10594302;27;20113;-86
2023/02/21 18:44:17;;;;;;;8.40;5.50;;;;;;;;;;10568401;27;20050;-89
2023/02/21 18:49:23;;;;;;;8.23;4.95;;;;;;;;;;10553566;27;20048;-90
2023/02/21 18:54:26;;;;;;;7.63;4.20;;;;;;;;;;10531988;28;20055;-84
2023/02/21 18:59:31;;;;;;;10.25;5.47;;;;;;;;;;10542266;28;20075;-84
2023/02/21 19:04:35;;;;;;;8.05;5.25;;;;;;;;;;10529525;28;20452;-84
2023/02/21 19:09:39;;;;;;;9.45;5.60;;;;;;;;;;10525165;28;20048;-86
2023/02/21 19:14:50;;;;;;;9.38;4.43;;;;;;;;;;10542065;28;20046;-85
2023/02/21 19:20:02;;;;;;;6.43;4.13;;;;;;;;;;10528693;28;20694;-84
2023/02/21 19:25:08;;;;;;;6.93;4.82;;;;;;;;;;10536878;28;20050;-86
2023/02/21 19:30:13;;;;;;;8.20;5.03;;;;;;;;;;10536416;28;20043;-86
2023/02/21 19:35:19;;;;;;;7.97;4.23;;;;;;;;;;10537648;28;20039;-86
2023/02/21 19:40:23;;;;;;;6.72;4.20;;;;;;;;;;10554874;28;20039;-89
2023/02/21 19:45:27;;;;;;;8.85;4.28;;;;;;;;;;10571650;27;20043;-86
2023/02/21 19:50:33;;;;;;;7.30;4.30;;;;;;;;;;10592368;27;20430;-85
2023/02/21 19:55:37;;;;;;;5.57;4.13;;;;;;;;;;10582401;27;20039;-84
2023/02/21 20:00:42;;;;;;;7.20;4.45;;;;;;;;;;10573346;27;20051;-84
2023/02/21 20:05:48;;;;;;;9.10;5.43;;;;;;;;;;10582528;27;20042;-84
2023/02/21 20:10:54;;;;;;;11.15;6.15;;;;;;;;;;10569600;27;20307;-84
2023/02/21 20:16:01;;;;;;;8.50;4.78;;;;;;;;;;10575945;27;20054;-86
2023/02/21 20:21:09;;;;;;;6.65;4.35;;;;;;;;;;10564988;27;20104;-86
2023/02/21 20:26:13;;;;;;;8.65;4.97;;;;;;;;;;10574571;27;20265;-86
2023/02/21 20:31:20;;;;;;;12.23;5.90;;;;;;;;;;10569784;27;20063;-85
2023/02/21 20:36:35;;;;;;;12.85;6.10;;;;;;;;;;10559220;27;20763;-87
2023/02/21 20:41:39;;;;;;;12.40;6.60;;;;;;;;;;10560670;27;20043;-84
2023/02/21 20:46:42;;;;;;;12.38;6.65;;;;;;;;;;10549557;27;20051;-84
2023/02/21 20:51:48;;;;;;;7.70;4.75;;;;;;;;;;10554327;27;20031;-84
2023/02/21 20:56:55;;;;;;;5.88;3.90;;;;;;;;;;10555163;27;20119;-84
2023/02/21 21:01:59;;;;;;;6.18;3.60;;;;;;;;;;10565354;27;20055;-84
2023/02/21 21:07:08;;;;;;;4.82;3.45;;;;;;;;;;10558037;27;20054;-83
2023/02/21 21:12:14;;;;;;;5.82;4.50;;;;;;;;;;10592966;27;20119;-86
2023/02/21 21:17:21;;;;;;;6.60;3.33;;;;;;;;;;10591383;27;20397;-86
2023/02/21 21:22:28;;;;;;;6.28;3.95;;;;;;;;;;10593913;27;20067;-89
2023/02/21 21:27:31;;;;;;;5.72;4.25;;;;;;;;;;10581437;27;22183;-86
2023/02/21 21:32:36;;;;;;;5.65;3.90;;;;;;;;;;10588377;27;20039;-88
2023/02/21 21:37:41;;;;;;;5.35;3.65;;;;;;;;;;10582017;27;20502;-85
2023/02/21 21:42:47;;;;;;;6.03;3.72;;;;;;;;;;10600764;27;20736;-86
2023/02/21 21:47:52;;;;;;;8.32;4.70;;;;;;;;;;10572769;27;20566;-89
2023/02/21 21:52:58;;;;;;;8.45;4.28;;;;;;;;;;10576807;27;20068;-86
2023/02/21 21:58:09;;;;;;;7.20;4.95;;;;;;;;;;10577143;27;20047;-86
2023/02/21 22:03:13;;;;;;;9.82;5.63;;;;;;;;;;10586684;27;20069;-86
2023/02/21 22:08:21;;;;;;;8.27;5.43;;;;;;;;;;10586911;27;20059;-87
2023/02/21 22:13:28;;;;;;;9.82;5.30;;;;;;;;;;10583348;27;20180;-87
2023/02/21 22:18:31;;;;;;;9.68;5.43;;;;;;;;;;10591478;27;20042;-87
2023/02/21 22:23:40;;;;;;;13.32;6.32;;;;;;;;;;10586943;27;20100;-86
2023/02/21 22:28:44;;;;;;;10.57;5.43;;;;;;;;;;10602379;27;20092;-86
2023/02/21 22:33:47;;;;;;;7.97;4.95;;;;;;;;;;10578821;27;20569;-88
2023/02/21 22:38:53;;;;;;;7.93;4.95;;;;;;;;;;10586104;27;20463;-85
2023/02/21 22:43:57;;;;;;;7.85;5.20;;;;;;;;;;10586278;27;20082;-89
2023/02/21 22:49:01;;;;;;;8.23;5.13;;;;;;;;;;10611685;27;20057;-89
2023/02/21 22:54:06;;;;;;;5.85;3.85;;;;;;;;;;10591559;27;20139;-84
2023/02/21 22:59:11;;;;;;;5.82;3.50;;;;;;;;;;10579877;27;20413;-83
2023/02/21 23:04:23;;;;;;;7.35;4.45;;;;;;;;;;10591835;27;20525;-83
2023/02/21 23:09:35;;;;;;;7.03;4.15;;;;;;;;;;10595655;27;20046;-83
2023/02/21 23:14:40;;;;;;;8.40;4.18;;;;;;;;;;10587699;27;20049;-88
2023/02/21 23:19:44;;;;;;;6.40;4.05;;;;;;;;;;10585069;27;20406;-83
2023/02/21 23:24:53;;;;;;;6.32;4.03;;;;;;;;;;10587242;27;20490;-84
2023/02/21 23:29:59;;;;;;;6.72;4.10;;;;;;;;;;10577903;27;20051;-83
2023/02/21 23:35:03;;;;;;;7.03;4.13;;;;;;;;;;10579091;27;20042;-87
2023/02/21 23:40:16;;;;;;;4.90;3.70;;;;;;;;;;10630278;27;20051;-86
2023/02/21 23:45:21;;;;;;;7.85;4.53;;;;;;;;;;10609261;27;20042;-85
2023/02/21 23:50:29;;;;;;;9.43;4.03;;;;;;;;;;10590587;27;20041;-86
2023/02/21 23:55:35;;;;;;;7.88;4.50;;;;;;;;;;10597028;27;20070;-87
